createdAt,value
2024-02-19T00:00:00.842Z,3.40
2024-02-19T00:00:14.062Z,3.20
2024-02-19T00:00:26.751Z,3.00
2024-02-19T00:00:38.946Z,3.00
2024-02-19T00:00:51.826Z,3.22
2024-02-19T00:01:04.339Z,3.70
2024-02-19T00:01:16.731Z,3.60
2024-02-19T00:01:30.860Z,3.38
2024-02-19T00:01:43.302Z,3.30
2024-02-19T00:01:55.905Z,3.28
2024-02-19T00:02:08.693Z,3.40
2024-02-19T00:02:20.726Z,3.45
2024-02-19T00:02:33.131Z,3.25
2024-02-19T00:02:45.280Z,3.15
2024-02-19T00:02:57.881Z,3.08
2024-02-19T00:03:09.930Z,3.00
2024-02-19T00:03:22.501Z,3.25
2024-02-19T00:03:34.843Z,3.45
2024-02-19T00:03:47.105Z,3.30
2024-02-19T00:03:59.432Z,3.10
2024-02-19T00:04:11.886Z,3.20
2024-02-19T00:04:24.126Z,3.30
2024-02-19T00:04:36.246Z,3.40
2024-02-19T00:04:48.621Z,3.22
2024-02-19T00:05:00.772Z,3.30
2024-02-19T00:05:12.875Z,3.35
2024-02-19T00:05:25.318Z,3.30
2024-02-19T00:05:37.342Z,3.20
2024-02-19T00:05:52.102Z,3.10
2024-02-19T00:06:05.956Z,3.10
2024-02-19T00:06:18.023Z,3.17
2024-02-19T00:06:30.030Z,3.35
2024-02-19T00:06:42.111Z,3.22
2024-02-19T00:06:58.575Z,3.33
2024-02-19T00:07:10.872Z,3.35
2024-02-19T00:07:23.663Z,3.20
2024-02-19T00:07:36.585Z,3.08
2024-02-19T00:07:48.737Z,3.10
2024-02-19T00:08:01.008Z,3.10
2024-02-19T00:08:13.638Z,3.20
2024-02-19T00:08:25.763Z,3.28
2024-02-19T00:08:37.873Z,3.13
2024-02-19T00:08:52.081Z,3.08
2024-02-19T00:09:05.146Z,3.03
2024-02-19T00:09:17.598Z,3.25
2024-02-19T00:09:29.673Z,3.35
2024-02-19T00:09:41.775Z,3.25
2024-02-19T00:09:53.951Z,3.28
2024-02-19T00:10:08.098Z,3.28
2024-02-19T00:10:20.170Z,3.00
2024-02-19T00:10:32.251Z,3.00
2024-02-19T00:10:44.306Z,3.10
2024-02-19T00:10:56.496Z,3.10
2024-02-19T00:11:08.524Z,3.17
2024-02-19T00:11:20.650Z,3.13
2024-02-19T00:11:33.219Z,3.10
2024-02-19T00:11:45.329Z,3.30
2024-02-19T00:11:57.416Z,3.50
2024-02-19T00:12:09.624Z,3.30
2024-02-19T00:12:21.746Z,3.25
2024-02-19T00:12:33.885Z,3.10
2024-02-19T00:12:45.992Z,3.15
2024-02-19T00:12:58.031Z,3.25
2024-02-19T00:13:10.188Z,3.03
2024-02-19T00:13:22.333Z,3.03
2024-02-19T00:13:34.491Z,3.10
2024-02-19T00:13:47.001Z,3.13
2024-02-19T00:13:59.653Z,3.00
2024-02-19T00:14:11.655Z,2.90
2024-02-19T00:14:23.676Z,3.10
2024-02-19T00:14:36.143Z,3.00
2024-02-19T00:14:48.181Z,3.10
2024-02-19T00:15:00.192Z,3.15
2024-02-19T00:15:12.434Z,3.00
2024-02-19T00:15:24.506Z,3.00
2024-02-19T00:15:36.984Z,2.90
2024-02-19T00:15:49.457Z,2.97
2024-02-19T00:16:01.786Z,2.97
2024-02-19T00:16:14.035Z,3.00
2024-02-19T00:16:26.216Z,3.28
2024-02-19T00:16:41.187Z,3.30
2024-02-19T00:16:54.897Z,3.05
2024-02-19T00:17:06.997Z,2.90
2024-02-19T00:17:19.055Z,2.75
2024-02-19T00:17:31.098Z,2.80
2024-02-19T00:17:43.309Z,3.03
2024-02-19T00:17:55.921Z,3.10
2024-02-19T00:18:08.344Z,3.10
2024-02-19T00:18:20.542Z,3.05
2024-02-19T00:18:32.665Z,2.90
2024-02-19T00:18:45.130Z,2.92
2024-02-19T00:18:57.468Z,3.13
2024-02-19T00:19:09.668Z,3.10
2024-02-19T00:19:22.700Z,3.10
2024-02-19T00:19:34.932Z,2.90
2024-02-19T00:19:47.027Z,3.03
2024-02-19T00:19:59.144Z,3.00
2024-02-19T00:20:11.714Z,3.03
2024-02-19T00:20:24.993Z,3.10
2024-02-19T00:20:37.131Z,3.08
2024-02-19T00:20:49.178Z,3.13
2024-02-19T00:21:01.678Z,3.30
2024-02-19T00:21:18.230Z,3.15
2024-02-19T00:21:30.287Z,2.90
2024-02-19T00:21:42.797Z,2.72
2024-02-19T00:21:54.849Z,2.97
2024-02-19T00:22:08.519Z,2.80
2024-02-19T00:22:20.666Z,2.70
2024-02-19T00:22:32.751Z,2.80
2024-02-19T00:22:44.800Z,2.85
2024-02-19T00:22:56.990Z,2.90
2024-02-19T00:23:08.972Z,3.00
2024-02-19T00:23:21.034Z,3.13
2024-02-19T00:23:35.376Z,3.05
2024-02-19T00:23:47.435Z,2.88
2024-02-19T00:23:59.638Z,2.80
2024-02-19T00:24:11.729Z,2.92
2024-02-19T00:24:23.734Z,2.92
2024-02-19T00:24:36.499Z,3.05
2024-02-19T00:24:48.666Z,2.90
2024-02-19T00:25:00.849Z,2.83
2024-02-19T00:25:13.068Z,2.78
2024-02-19T00:25:25.285Z,2.80
2024-02-19T00:25:37.413Z,2.90
2024-02-19T00:25:49.438Z,3.10
2024-02-19T00:26:02.143Z,3.20
2024-02-19T00:26:14.747Z,3.00
2024-02-19T00:26:26.863Z,3.05
2024-02-19T00:26:38.917Z,3.03
2024-02-19T00:26:52.235Z,3.00
2024-02-19T00:27:04.256Z,3.17
2024-02-19T00:27:16.883Z,3.22
2024-02-19T00:27:28.979Z,3.03
2024-02-19T00:27:41.026Z,2.92
2024-02-19T00:27:53.203Z,2.63
2024-02-19T00:28:05.790Z,2.80
2024-02-19T00:28:17.864Z,2.95
2024-02-19T00:28:31.306Z,3.00
2024-02-19T00:28:43.469Z,2.90
2024-02-19T00:28:55.475Z,2.92
2024-02-19T00:29:07.985Z,3.05
2024-02-19T00:29:20.054Z,3.03
2024-02-19T00:29:32.110Z,2.88
2024-02-19T00:29:44.152Z,2.95
2024-02-19T00:29:56.174Z,2.92
2024-02-19T00:30:09.270Z,3.10
2024-02-19T00:30:21.962Z,2.90
2024-02-19T00:30:34.006Z,2.90
2024-02-19T00:30:46.184Z,2.80
2024-02-19T00:30:58.345Z,2.67
2024-02-19T00:31:13.591Z,2.60
2024-02-19T00:31:25.720Z,2.78
2024-02-19T00:31:37.825Z,2.72
2024-02-19T00:31:49.973Z,2.80
2024-02-19T00:32:01.933Z,3.00
2024-02-19T00:32:14.087Z,3.10
2024-02-19T00:32:26.126Z,3.03
2024-02-19T00:32:38.370Z,2.90
2024-02-19T00:32:50.692Z,2.90
2024-02-19T00:33:02.962Z,3.00
2024-02-19T00:33:15.146Z,3.08
2024-02-19T00:33:27.339Z,3.00
2024-02-19T00:33:40.368Z,3.13
2024-02-19T00:33:53.218Z,2.95
2024-02-19T00:34:05.501Z,2.97
2024-02-19T00:34:17.647Z,2.90
2024-02-19T00:34:29.811Z,3.00
2024-02-19T00:34:44.880Z,3.17
2024-02-19T00:34:57.133Z,2.92
2024-02-19T00:35:09.392Z,2.83
2024-02-19T00:35:22.422Z,2.80
2024-02-19T00:35:34.530Z,2.70
2024-02-19T00:35:47.392Z,2.70
2024-02-19T00:35:59.454Z,3.00
2024-02-19T00:36:11.516Z,2.97
2024-02-19T00:36:23.530Z,2.75
2024-02-19T00:36:35.584Z,2.78
2024-02-19T00:36:47.710Z,2.90
2024-02-19T00:36:59.848Z,2.90
2024-02-19T00:37:12.883Z,2.90
2024-02-19T00:37:25.198Z,3.00
2024-02-19T00:37:38.707Z,3.10
2024-02-19T00:37:50.927Z,3.00
2024-02-19T00:38:03.111Z,3.03
2024-02-19T00:38:15.131Z,2.90
2024-02-19T00:38:27.291Z,2.85
2024-02-19T00:38:39.524Z,2.72
2024-02-19T00:38:51.665Z,2.70
2024-02-19T00:39:03.824Z,2.80
2024-02-19T00:39:15.841Z,2.80
2024-02-19T00:39:27.899Z,2.80
2024-02-19T00:39:40.075Z,2.70
2024-02-19T00:39:52.424Z,2.83
2024-02-19T00:40:05.831Z,2.90
2024-02-19T00:40:20.451Z,2.80
2024-02-19T00:40:32.575Z,2.80
2024-02-19T00:40:44.685Z,2.83
2024-02-19T00:40:57.256Z,2.78
2024-02-19T00:41:10.162Z,2.80
2024-02-19T00:41:23.347Z,2.85
2024-02-19T00:41:36.042Z,2.70
2024-02-19T00:41:48.091Z,2.63
2024-02-19T00:42:00.230Z,2.75
2024-02-19T00:42:12.631Z,2.90
2024-02-19T00:42:26.033Z,2.95
2024-02-19T00:42:38.436Z,2.60
2024-02-19T00:42:50.851Z,2.80
2024-02-19T00:43:03.108Z,2.97
2024-02-19T00:43:15.312Z,3.20
2024-02-19T00:43:27.950Z,2.90
2024-02-19T00:43:39.962Z,2.90
2024-02-19T00:43:51.992Z,2.90
2024-02-19T00:44:04.252Z,2.90
2024-02-19T00:44:16.811Z,2.80
2024-02-19T00:44:28.814Z,2.80
2024-02-19T00:44:40.892Z,2.80
2024-02-19T00:44:53.030Z,2.92
2024-02-19T00:45:05.616Z,2.97
2024-02-19T00:45:18.391Z,3.10
2024-02-19T00:45:30.438Z,2.83
2024-02-19T00:45:42.727Z,2.60
2024-02-19T00:45:54.906Z,2.70
2024-02-19T00:46:07.043Z,2.72
2024-02-19T00:46:19.113Z,2.70
2024-02-19T00:46:31.341Z,2.75
2024-02-19T00:46:43.412Z,2.78
2024-02-19T00:46:55.517Z,2.90
2024-02-19T00:47:07.752Z,3.00
2024-02-19T00:47:19.846Z,2.92
2024-02-19T00:47:32.030Z,3.00
2024-02-19T00:47:44.324Z,3.10
2024-02-19T00:47:56.456Z,3.13
2024-02-19T00:48:08.777Z,3.15
2024-02-19T00:48:21.239Z,2.90
2024-02-19T00:48:33.332Z,2.80
2024-02-19T00:48:45.560Z,3.00
2024-02-19T00:48:57.741Z,3.03
2024-02-19T00:49:09.894Z,2.88
2024-02-19T00:49:22.033Z,2.70
2024-02-19T00:49:34.315Z,2.83
2024-02-19T00:49:46.486Z,2.90
2024-02-19T00:49:58.734Z,2.80
2024-02-19T00:50:11.211Z,2.80
2024-02-19T00:50:23.331Z,2.78
2024-02-19T00:50:35.415Z,2.90
2024-02-19T00:50:47.434Z,2.90
2024-02-19T00:50:59.512Z,2.85
2024-02-19T00:51:11.634Z,2.70
2024-02-19T00:51:23.711Z,2.67
2024-02-19T00:51:36.616Z,2.80
2024-02-19T00:51:49.506Z,3.00
2024-02-19T00:52:02.121Z,2.95
2024-02-19T00:52:14.302Z,2.90
2024-02-19T00:52:26.480Z,2.90
2024-02-19T00:52:40.315Z,2.80
2024-02-19T00:52:52.432Z,2.75
2024-02-19T00:53:05.368Z,2.63
2024-02-19T00:53:17.351Z,2.67
2024-02-19T00:53:29.353Z,2.47
2024-02-19T00:53:41.473Z,2.60
2024-02-19T00:53:53.490Z,2.70
2024-02-19T00:54:05.543Z,3.05
2024-02-19T00:54:17.553Z,2.90
2024-02-19T00:54:29.562Z,2.78
2024-02-19T00:54:44.104Z,2.80
2024-02-19T00:54:58.959Z,2.92
2024-02-19T00:55:11.545Z,2.80
2024-02-19T00:55:23.694Z,2.55
2024-02-19T00:55:35.785Z,2.70
2024-02-19T00:55:49.199Z,2.80
2024-02-19T00:56:02.351Z,2.78
2024-02-19T00:56:14.360Z,2.80
2024-02-19T00:56:26.672Z,3.00
2024-02-19T00:56:38.814Z,2.92
2024-02-19T00:56:50.812Z,2.78
2024-02-19T00:57:02.910Z,2.53
2024-02-19T00:57:14.993Z,2.70
2024-02-19T00:57:27.072Z,2.80
2024-02-19T00:57:39.150Z,2.90
2024-02-19T00:57:51.198Z,2.70
2024-02-19T00:58:03.478Z,2.63
2024-02-19T00:58:15.687Z,2.70
2024-02-19T00:58:27.751Z,2.67
2024-02-19T00:58:39.752Z,2.70
2024-02-19T00:58:51.824Z,2.60
2024-02-19T00:59:04.395Z,2.70
2024-02-19T00:59:16.448Z,2.60
2024-02-19T00:59:28.513Z,2.70
2024-02-19T00:59:40.612Z,2.70
2024-02-19T00:59:52.592Z,2.72
2024-02-19T01:00:06.319Z,2.70
2024-02-19T01:00:18.969Z,2.58
2024-02-19T01:00:31.044Z,2.78
2024-02-19T01:00:43.772Z,2.90
2024-02-19T01:00:57.051Z,2.90
2024-02-19T01:01:09.477Z,2.75
2024-02-19T01:01:21.657Z,2.75
2024-02-19T01:01:34.056Z,3.00
2024-02-19T01:01:46.152Z,2.95
2024-02-19T01:01:58.284Z,2.75
2024-02-19T01:02:10.462Z,2.70
2024-02-19T01:02:22.535Z,2.65
2024-02-19T01:02:34.649Z,2.60
2024-02-19T01:02:46.681Z,2.60
2024-02-19T01:02:59.368Z,2.75
2024-02-19T01:03:12.535Z,2.80
2024-02-19T01:03:24.667Z,2.90
2024-02-19T01:03:36.952Z,2.80
2024-02-19T01:03:49.250Z,2.60
2024-02-19T01:04:01.629Z,2.60
2024-02-19T01:04:13.750Z,2.67
2024-02-19T01:04:27.736Z,2.70
2024-02-19T01:04:40.016Z,2.72
2024-02-19T01:04:55.281Z,2.75
2024-02-19T01:05:07.907Z,2.70
2024-02-19T01:05:20.979Z,2.70
2024-02-19T01:05:34.335Z,2.70
2024-02-19T01:05:46.499Z,2.70
2024-02-19T01:05:58.562Z,2.70
2024-02-19T01:06:10.738Z,2.70
2024-02-19T01:06:23.003Z,2.80
2024-02-19T01:06:35.065Z,2.88
2024-02-19T01:06:47.133Z,2.90
2024-02-19T01:06:59.224Z,2.88
2024-02-19T01:07:11.303Z,2.88
2024-02-19T01:07:23.594Z,2.97
2024-02-19T01:07:36.484Z,2.63
2024-02-19T01:07:48.535Z,2.53
2024-02-19T01:08:00.552Z,2.78
2024-02-19T01:08:12.702Z,2.83
2024-02-19T01:08:24.754Z,2.70
2024-02-19T01:08:36.792Z,2.70
2024-02-19T01:08:48.797Z,2.75
2024-02-19T01:09:00.787Z,2.90
2024-02-19T01:09:12.855Z,3.00
2024-02-19T01:09:24.834Z,2.78
2024-02-19T01:09:36.968Z,2.60
2024-02-19T01:09:49.663Z,2.60
2024-02-19T01:10:01.845Z,2.80
2024-02-19T01:10:14.079Z,2.97
2024-02-19T01:10:26.196Z,3.05
2024-02-19T01:10:38.271Z,2.78
2024-02-19T01:10:50.682Z,2.80
2024-02-19T01:11:02.713Z,2.75
2024-02-19T01:11:14.908Z,2.70
2024-02-19T01:11:27.047Z,2.65
2024-02-19T01:11:39.058Z,2.70
2024-02-19T01:11:51.159Z,2.85
2024-02-19T01:12:03.282Z,2.78
2024-02-19T01:12:16.446Z,2.63
2024-02-19T01:12:28.457Z,2.60
2024-02-19T01:12:40.514Z,2.75
2024-02-19T01:12:52.663Z,2.70
2024-02-19T01:13:05.012Z,2.80
2024-02-19T01:13:17.759Z,2.70
2024-02-19T01:13:29.818Z,2.70
2024-02-19T01:13:42.982Z,2.72
2024-02-19T01:13:55.105Z,2.63
2024-02-19T01:14:07.095Z,2.42
2024-02-19T01:14:19.220Z,2.53
2024-02-19T01:14:31.229Z,2.72
2024-02-19T01:14:43.533Z,2.80
2024-02-19T01:14:55.673Z,2.67
2024-02-19T01:15:08.408Z,2.50
2024-02-19T01:15:20.893Z,2.60
2024-02-19T01:15:32.966Z,2.80
2024-02-19T01:15:45.080Z,2.67
2024-02-19T01:15:57.160Z,2.60
2024-02-19T01:16:09.987Z,2.63
2024-02-19T01:16:22.196Z,2.80
2024-02-19T01:16:34.233Z,2.85
2024-02-19T01:16:47.892Z,2.70
2024-02-19T01:17:00.111Z,2.80
2024-02-19T01:17:12.454Z,2.70
2024-02-19T01:17:24.640Z,2.72
2024-02-19T01:17:36.724Z,2.75
2024-02-19T01:17:49.772Z,2.70
2024-02-19T01:18:02.445Z,2.70
2024-02-19T01:18:14.585Z,2.72
2024-02-19T01:18:26.672Z,3.05
2024-02-19T01:18:38.931Z,2.90
2024-02-19T01:18:51.091Z,2.72
2024-02-19T01:19:03.297Z,2.75
2024-02-19T01:19:16.116Z,2.80
2024-02-19T01:19:28.377Z,2.83
2024-02-19T01:19:40.622Z,2.78
2024-02-19T01:19:53.909Z,2.63
2024-02-19T01:20:07.459Z,2.42
2024-02-19T01:20:21.480Z,2.50
2024-02-19T01:20:33.555Z,2.50
2024-02-19T01:20:45.619Z,2.50
2024-02-19T01:20:57.693Z,2.38
2024-02-19T01:21:09.713Z,2.28
2024-02-19T01:21:21.749Z,2.40
2024-02-19T01:21:33.887Z,2.42
2024-02-19T01:21:46.037Z,2.55
2024-02-19T01:21:58.139Z,2.67
2024-02-19T01:22:10.163Z,2.60
2024-02-19T01:22:22.251Z,2.40
2024-02-19T01:22:34.607Z,2.40
2024-02-19T01:22:46.678Z,2.30
2024-02-19T01:22:59.282Z,2.42
2024-02-19T01:23:11.326Z,2.45
2024-02-19T01:23:23.395Z,2.53
2024-02-19T01:23:35.571Z,2.70
2024-02-19T01:23:47.612Z,2.85
2024-02-19T01:24:00.075Z,2.83
2024-02-19T01:24:12.624Z,2.90
2024-02-19T01:24:25.504Z,2.40
2024-02-19T01:24:39.118Z,2.40
2024-02-19T01:24:51.453Z,2.60
2024-02-19T01:25:03.817Z,2.80
2024-02-19T01:25:15.989Z,2.80
2024-02-19T01:25:28.080Z,2.70
2024-02-19T01:25:41.431Z,2.50
2024-02-19T01:25:56.960Z,2.60
2024-02-19T01:26:09.173Z,2.47
2024-02-19T01:26:24.191Z,2.28
2024-02-19T01:26:36.801Z,2.33
2024-02-19T01:26:48.836Z,2.30
2024-02-19T01:27:03.364Z,2.33
2024-02-19T01:27:15.413Z,2.50
2024-02-19T01:27:27.435Z,2.65
2024-02-19T01:27:39.626Z,2.70
2024-02-19T01:27:51.924Z,2.95
2024-02-19T01:28:04.326Z,3.10
2024-02-19T01:28:16.494Z,3.03
2024-02-19T01:28:28.900Z,2.78
2024-02-19T01:28:41.180Z,2.58
2024-02-19T01:28:53.373Z,2.55
2024-02-19T01:29:05.671Z,2.70
2024-02-19T01:29:17.673Z,2.80
2024-02-19T01:29:29.714Z,2.75
2024-02-19T01:29:41.716Z,2.83
2024-02-19T01:29:53.830Z,2.92
2024-02-19T01:30:07.219Z,2.90
2024-02-19T01:30:19.236Z,2.67
2024-02-19T01:30:32.314Z,2.65
2024-02-19T01:30:45.636Z,2.80
2024-02-19T01:30:58.938Z,2.90
2024-02-19T01:31:11.266Z,3.00
2024-02-19T01:31:24.054Z,2.90
2024-02-19T01:31:36.197Z,2.70
2024-02-19T01:31:48.276Z,2.70
2024-02-19T01:32:00.332Z,2.70
2024-02-19T01:32:13.167Z,2.60
2024-02-19T01:32:25.466Z,2.78
2024-02-19T01:32:38.469Z,2.70
2024-02-19T01:32:50.729Z,2.63
2024-02-19T01:33:03.217Z,2.70
2024-02-19T01:33:15.831Z,2.67
2024-02-19T01:33:27.984Z,2.40
2024-02-19T01:33:40.198Z,2.38
2024-02-19T01:33:52.425Z,2.60
2024-02-19T01:34:05.716Z,2.83
2024-02-19T01:34:19.350Z,2.70
2024-02-19T01:34:31.851Z,2.60
2024-02-19T01:34:44.505Z,2.65
2024-02-19T01:34:56.812Z,2.65
2024-02-19T01:35:12.601Z,2.47
2024-02-19T01:35:24.859Z,2.55
2024-02-19T01:35:37.060Z,2.65
2024-02-19T01:35:49.192Z,2.60
2024-02-19T01:36:01.216Z,2.60
2024-02-19T01:36:13.254Z,2.78
2024-02-19T01:36:25.594Z,2.90
2024-02-19T01:36:37.967Z,2.75
2024-02-19T01:36:50.301Z,2.70
2024-02-19T01:37:05.984Z,2.80
2024-02-19T01:37:18.555Z,2.60
2024-02-19T01:37:30.933Z,2.53
2024-02-19T01:37:43.044Z,2.78
2024-02-19T01:37:55.416Z,2.80
2024-02-19T01:38:07.605Z,2.75
2024-02-19T01:38:19.699Z,2.50
2024-02-19T01:38:32.271Z,2.42
2024-02-19T01:38:44.632Z,2.75
2024-02-19T01:38:56.859Z,2.95
2024-02-19T01:39:09.074Z,2.90
2024-02-19T01:39:21.893Z,2.90
2024-02-19T01:39:34.376Z,2.63
2024-02-19T01:39:48.688Z,2.60
2024-02-19T01:40:00.818Z,2.60
2024-02-19T01:40:14.226Z,2.50
2024-02-19T01:40:26.540Z,2.50
2024-02-19T01:40:38.919Z,2.60
2024-02-19T01:40:50.953Z,2.53
2024-02-19T01:41:03.252Z,2.60
2024-02-19T01:41:15.362Z,2.50
2024-02-19T01:41:27.536Z,2.30
2024-02-19T01:41:39.856Z,2.30
2024-02-19T01:41:51.894Z,2.22
2024-02-19T01:42:05.177Z,2.15
2024-02-19T01:42:17.296Z,2.38
2024-02-19T01:42:29.334Z,2.35
2024-02-19T01:42:41.443Z,2.40
2024-02-19T01:43:07.228Z,2.45
2024-02-19T01:43:19.504Z,2.60
2024-02-19T01:43:31.694Z,2.50
2024-02-19T01:43:44.553Z,2.60
2024-02-19T01:43:56.753Z,2.70
2024-02-19T01:44:09.991Z,2.67
2024-02-19T01:44:22.310Z,2.55
2024-02-19T01:44:38.028Z,2.50
2024-02-19T01:44:50.247Z,2.55
2024-02-19T01:45:03.009Z,2.87
2024-02-19T01:45:27.725Z,2.63
2024-02-19T01:45:40.390Z,2.35
2024-02-19T01:45:53.449Z,2.55
2024-02-19T01:46:05.718Z,2.60
2024-02-19T01:46:19.095Z,2.60
2024-02-19T01:46:32.715Z,2.63
2024-02-19T01:46:46.975Z,2.90
2024-02-19T01:47:00.175Z,2.88
2024-02-19T01:47:13.354Z,2.50
2024-02-19T01:47:25.670Z,2.45
2024-02-19T01:47:37.771Z,2.50
2024-02-19T01:47:50.136Z,2.50
2024-02-19T01:48:04.082Z,2.38
2024-02-19T01:48:17.711Z,2.60
2024-02-19T01:48:30.080Z,2.63
2024-02-19T01:48:42.734Z,2.67
2024-02-19T01:48:54.975Z,2.60
2024-02-19T01:49:10.233Z,2.55
2024-02-19T01:49:22.796Z,2.70
2024-02-19T01:49:35.285Z,2.73
2024-02-19T01:49:47.453Z,2.70
2024-02-19T01:49:59.935Z,2.75
2024-02-19T01:50:13.227Z,2.70
2024-02-19T01:50:28.302Z,2.70
2024-02-19T01:50:41.787Z,2.60
2024-02-19T01:50:54.766Z,2.65
2024-02-19T01:51:07.450Z,2.70
2024-02-19T01:51:21.703Z,2.50
2024-02-19T01:51:36.016Z,2.67
2024-02-19T01:51:48.646Z,2.80
2024-02-19T01:52:01.553Z,2.63
2024-02-19T01:52:13.934Z,2.60
2024-02-19T01:52:26.679Z,2.72
2024-02-19T01:52:40.396Z,2.72
2024-02-19T01:52:53.939Z,2.67
2024-02-19T01:53:10.344Z,2.50
2024-02-19T01:53:24.730Z,2.65
2024-02-19T01:53:37.704Z,2.67
2024-02-19T01:53:51.385Z,2.50
2024-02-19T01:54:04.041Z,2.42
2024-02-19T01:54:17.097Z,2.38
2024-02-19T01:54:29.177Z,2.70
2024-02-19T01:54:41.477Z,2.97
2024-02-19T01:54:54.191Z,2.90
2024-02-19T01:55:06.623Z,2.78
2024-02-19T01:55:20.966Z,2.60
2024-02-19T01:55:35.983Z,2.40
2024-02-19T01:55:49.720Z,2.47
2024-02-19T01:56:02.115Z,2.38
2024-02-19T01:56:14.265Z,2.47
2024-02-19T01:56:26.573Z,2.70
2024-02-19T01:56:40.272Z,2.90
2024-02-19T01:56:54.412Z,2.70
2024-02-19T01:57:08.159Z,2.47
2024-02-19T01:57:20.876Z,2.42
2024-02-19T01:57:33.055Z,2.33
2024-02-19T01:57:46.188Z,2.40
2024-02-19T01:57:59.716Z,2.75
2024-02-19T01:58:15.446Z,2.70
2024-02-19T01:58:27.837Z,2.47
2024-02-19T01:58:40.053Z,2.60
2024-02-19T01:58:53.632Z,2.67
2024-02-19T01:59:08.314Z,2.55
2024-02-19T01:59:23.699Z,2.77
2024-02-19T01:59:36.154Z,2.75
2024-02-19T01:59:49.413Z,2.72
2024-02-19T02:00:07.274Z,2.63
2024-02-19T02:00:20.378Z,2.60
2024-02-19T02:00:34.140Z,2.60
2024-02-19T02:00:47.059Z,2.60
2024-02-19T02:01:00.361Z,2.67
2024-02-19T02:01:15.354Z,2.53
2024-02-19T02:01:28.593Z,2.70
2024-02-19T02:01:43.254Z,2.72
2024-02-19T02:01:56.922Z,2.75
2024-02-19T02:02:10.931Z,2.55
2024-02-19T02:02:23.408Z,2.42
2024-02-19T02:02:36.204Z,2.80
2024-02-19T02:02:48.840Z,2.80
2024-02-19T02:03:04.800Z,2.70
2024-02-19T02:03:23.771Z,2.60
2024-02-19T02:03:38.059Z,2.80
2024-02-19T02:03:52.488Z,2.80
2024-02-19T02:04:07.329Z,2.78
2024-02-19T02:04:20.222Z,2.60
2024-02-19T02:04:32.473Z,2.53
2024-02-19T02:04:44.706Z,2.50
2024-02-19T02:04:56.917Z,2.78
2024-02-19T02:05:09.012Z,2.70
2024-02-19T02:05:21.374Z,2.75
2024-02-19T02:05:34.723Z,2.63
2024-02-19T02:05:49.042Z,2.83
2024-02-19T02:06:01.276Z,2.65
2024-02-19T02:06:13.739Z,2.42
2024-02-19T02:06:26.278Z,2.42
2024-02-19T02:06:38.860Z,2.45
2024-02-19T02:06:51.613Z,2.63
2024-02-19T02:07:04.736Z,2.60
2024-02-19T02:07:18.874Z,2.50
2024-02-19T02:07:31.454Z,2.55
2024-02-19T02:07:47.954Z,2.50
2024-02-19T02:08:03.291Z,2.78
2024-02-19T02:08:16.157Z,2.80
2024-02-19T02:08:28.717Z,2.65
2024-02-19T02:08:41.687Z,2.40
2024-02-19T02:08:54.091Z,2.40
2024-02-19T02:09:08.850Z,2.55
2024-02-19T02:09:21.948Z,2.67
2024-02-19T02:09:35.073Z,2.67
2024-02-19T02:09:47.969Z,2.55
2024-02-19T02:10:03.900Z,2.50
2024-02-19T02:10:16.693Z,2.63
2024-02-19T02:10:29.322Z,2.72
2024-02-19T02:10:41.700Z,2.70
2024-02-19T02:10:54.018Z,2.50
2024-02-19T02:11:07.057Z,2.65
2024-02-19T02:11:19.519Z,2.70
2024-02-19T02:11:31.978Z,2.70
2024-02-19T02:11:44.253Z,2.50
2024-02-19T02:11:56.609Z,2.53
2024-02-19T02:12:09.255Z,2.67
2024-02-19T02:12:21.502Z,2.63
2024-02-19T02:12:34.177Z,2.65
2024-02-19T02:12:47.058Z,2.50
2024-02-19T02:12:59.580Z,2.70
2024-02-19T02:13:12.746Z,2.80
2024-02-19T02:13:25.288Z,2.72
2024-02-19T02:13:37.682Z,2.60
2024-02-19T02:13:50.036Z,2.70
2024-02-19T02:14:02.312Z,2.88
2024-02-19T02:14:14.516Z,2.67
2024-02-19T02:14:27.313Z,2.70
2024-02-19T02:14:39.532Z,2.83
2024-02-19T02:14:51.952Z,2.80
2024-02-19T02:15:05.028Z,2.97
2024-02-19T02:15:17.434Z,2.83
2024-02-19T02:15:29.678Z,2.70
2024-02-19T02:15:42.025Z,2.88
2024-02-19T02:15:54.541Z,2.80
2024-02-19T02:16:08.536Z,2.63
2024-02-19T02:16:32.070Z,2.60
2024-02-19T02:16:44.491Z,2.55
2024-02-19T02:16:56.719Z,2.40
2024-02-19T02:17:09.652Z,2.40
2024-02-19T02:17:21.945Z,2.53
2024-02-19T02:17:34.533Z,2.67
2024-02-19T02:17:46.909Z,2.60
2024-02-19T02:17:59.250Z,2.63
2024-02-19T02:18:14.325Z,2.70
2024-02-19T02:18:26.934Z,2.63
2024-02-19T02:18:39.427Z,2.58
2024-02-19T02:18:54.329Z,2.67
2024-02-19T02:19:07.159Z,2.88
2024-02-19T02:19:19.727Z,2.95
2024-02-19T02:19:32.492Z,2.95
2024-02-19T02:19:45.698Z,2.80
2024-02-19T02:19:58.123Z,2.65
2024-02-19T02:20:12.047Z,2.75
2024-02-19T02:20:25.291Z,2.67
2024-02-19T02:20:37.757Z,2.70
2024-02-19T02:20:50.088Z,2.60
2024-02-19T02:21:02.857Z,2.50
2024-02-19T02:21:17.655Z,2.50
2024-02-19T02:21:29.992Z,2.50
2024-02-19T02:21:44.357Z,2.60
2024-02-19T02:21:57.159Z,2.70
2024-02-19T02:22:09.788Z,2.58
2024-02-19T02:22:22.258Z,2.65
2024-02-19T02:22:36.530Z,2.58
2024-02-19T02:22:49.677Z,2.50
2024-02-19T02:23:03.623Z,2.47
2024-02-19T02:23:16.629Z,2.50
2024-02-19T02:23:30.815Z,2.50
2024-02-19T02:23:43.113Z,2.42
2024-02-19T02:23:55.397Z,2.50
2024-02-19T02:24:07.775Z,2.63
2024-02-19T02:24:20.690Z,2.67
2024-02-19T02:24:32.848Z,2.60
2024-02-19T02:24:45.315Z,2.65
2024-02-19T02:24:57.654Z,2.72
2024-02-19T02:25:10.143Z,2.70
2024-02-19T02:25:23.888Z,2.80
2024-02-19T02:25:36.272Z,2.70
2024-02-19T02:25:49.298Z,2.60
2024-02-19T02:26:01.531Z,2.65
2024-02-19T02:26:13.912Z,2.60
2024-02-19T02:26:27.535Z,2.58
2024-02-19T02:26:41.418Z,2.20
2024-02-19T02:26:53.806Z,2.17
2024-02-19T02:27:06.472Z,2.67
2024-02-19T02:27:18.658Z,2.80
2024-02-19T02:27:31.174Z,2.75
2024-02-19T02:27:43.467Z,2.50
2024-02-19T02:27:55.816Z,2.65
2024-02-19T02:28:08.095Z,2.83
2024-02-19T02:28:24.548Z,2.78
2024-02-19T02:28:36.930Z,2.50
2024-02-19T02:28:49.253Z,2.60
2024-02-19T02:29:01.565Z,2.60
2024-02-19T02:29:13.994Z,2.47
2024-02-19T02:29:26.387Z,2.65
2024-02-19T02:29:38.916Z,2.80
2024-02-19T02:29:51.116Z,2.80
2024-02-19T02:30:04.772Z,2.58
2024-02-19T02:30:17.106Z,2.50
2024-02-19T02:30:29.393Z,2.40
2024-02-19T02:30:41.678Z,2.58
2024-02-19T02:30:54.311Z,2.83
2024-02-19T02:31:06.863Z,2.70
2024-02-19T02:31:20.371Z,2.47
2024-02-19T02:31:33.454Z,2.45
2024-02-19T02:31:45.871Z,2.70
2024-02-19T02:31:58.292Z,2.70
2024-02-19T02:32:10.592Z,2.72
2024-02-19T02:32:22.820Z,2.70
2024-02-19T02:32:36.031Z,2.63
2024-02-19T02:32:49.750Z,2.50
2024-02-19T02:33:01.946Z,2.70
2024-02-19T02:33:14.727Z,2.90
2024-02-19T02:33:27.649Z,2.97
2024-02-19T02:33:40.920Z,2.80
2024-02-19T02:33:53.945Z,2.63
2024-02-19T02:34:06.678Z,2.70
2024-02-19T02:34:19.057Z,2.50
2024-02-19T02:34:31.432Z,2.45
2024-02-19T02:34:43.998Z,2.65
2024-02-19T02:34:56.274Z,2.70
2024-02-19T02:35:08.895Z,2.70
2024-02-19T02:35:20.971Z,2.60
2024-02-19T02:35:33.137Z,2.60
2024-02-19T02:35:45.334Z,2.58
2024-02-19T02:35:57.702Z,2.55
2024-02-19T02:36:13.624Z,2.65
2024-02-19T02:36:25.847Z,2.55
2024-02-19T02:36:41.769Z,2.63
2024-02-19T02:36:54.077Z,2.88
2024-02-19T02:37:06.437Z,2.72
2024-02-19T02:37:18.723Z,2.80
2024-02-19T02:37:32.007Z,2.78
2024-02-19T02:37:44.233Z,2.85
2024-02-19T02:37:56.372Z,2.60
2024-02-19T02:38:08.490Z,2.63
2024-02-19T02:38:20.498Z,2.80
2024-02-19T02:38:32.741Z,2.83
2024-02-19T02:38:45.202Z,2.72
2024-02-19T02:38:57.391Z,2.90
2024-02-19T02:39:09.552Z,3.00
2024-02-19T02:39:21.669Z,2.75
2024-02-19T02:39:34.062Z,2.55
2024-02-19T02:39:46.220Z,2.58
2024-02-19T02:39:58.465Z,2.60
2024-02-19T02:40:11.662Z,2.40
2024-02-19T02:40:23.915Z,2.50
2024-02-19T02:40:37.020Z,2.70
2024-02-19T02:40:49.169Z,2.58
2024-02-19T02:41:01.194Z,2.78
2024-02-19T02:41:14.929Z,2.80
2024-02-19T02:41:27.054Z,2.75
2024-02-19T02:41:39.174Z,2.55
2024-02-19T02:41:51.571Z,2.45
2024-02-19T02:42:05.536Z,2.67
2024-02-19T02:42:18.842Z,2.65
2024-02-19T02:42:31.801Z,2.50
2024-02-19T02:42:45.080Z,2.60
2024-02-19T02:42:57.380Z,2.60
2024-02-19T02:43:09.499Z,2.50
2024-02-19T02:43:22.067Z,2.50
2024-02-19T02:43:34.468Z,2.50
2024-02-19T02:43:46.588Z,2.60
2024-02-19T02:43:59.038Z,2.72
2024-02-19T02:44:11.389Z,2.70
2024-02-19T02:44:23.654Z,2.60
2024-02-19T02:44:36.071Z,2.47
2024-02-19T02:44:48.217Z,2.63
2024-02-19T02:45:00.470Z,2.80
2024-02-19T02:45:12.734Z,3.00
2024-02-19T02:45:25.525Z,2.97
2024-02-19T02:45:37.802Z,2.80
2024-02-19T02:45:51.479Z,2.92
2024-02-19T02:46:05.647Z,2.78
2024-02-19T02:46:17.914Z,2.50
2024-02-19T02:46:30.002Z,2.67
2024-02-19T02:46:42.103Z,2.80
2024-02-19T02:46:54.303Z,3.00
2024-02-19T02:47:06.475Z,2.97
2024-02-19T02:47:18.692Z,2.88
2024-02-19T02:47:30.770Z,2.90
2024-02-19T02:47:43.073Z,2.90
2024-02-19T02:47:55.220Z,2.75
2024-02-19T02:48:09.653Z,2.85
2024-02-19T02:48:22.007Z,2.70
2024-02-19T02:48:34.622Z,2.60
2024-02-19T02:48:46.829Z,2.60